| time (UTC) | temp F | wind direction | speed knots | gust knots | rain 1hr in | rain 24hr in | rain mn in | humidity % | barometer mb |
| 20260906180157 | 79 | 147 | 7.8 | 9.6 | 0.00 | 0.00 | 0.00 | 56 | 1020.9 |
| 20260906175655 | 79 | 167 | 5.2 | 8.7 | 0.00 | 0.00 | 0.00 | 56 | 1021.2 |
| 20260906175150 | 80 | 157 | 6.1 | 7.0 | 0.00 | 0.00 | 0.00 | 55 | 1021.0 |
| 20260906174648 | 79 | 156 | 5.2 | 7.0 | 0.00 | 0.00 | 0.00 | 56 | 1021.1 |
| 20260906174143 | 79 | 193 | 3.5 | 9.6 | 0.00 | 0.00 | 0.00 | 57 | 1021.1 |
| 20260906173639 | 79 | 210 | 2.6 | 9.6 | 0.00 | 0.00 | 0.00 | 57 | 1021.1 |
| 20260906173134 | 79 | 146 | 7.8 | 13.0 | 0.00 | 0.00 | 0.00 | 56 | 1021.0 |
| 20260906172633 | 80 | 142 | 8.7 | 13.0 | 0.00 | 0.00 | 0.00 | 56 | 1020.9 |
| 20260906172129 | 78 | 160 | 4.3 | 7.8 | 0.00 | 0.00 | 0.00 | 57 | 1021.1 |
| 20260906171628 | 79 | 152 | 7.0 | 8.7 | 0.00 | 0.00 | 0.00 | 56 | 1021.1 |
| 20260906171124 | 80 | 61 | 4.3 | 7.0 | 0.00 | 0.00 | 0.00 | 56 | 1021.2 |
| 20260906170620 | 80 | 190 | 4.3 | 6.1 | 0.00 | 0.00 | 0.00 | 58 | 1021.1 |
| 20260906170119 | 78 | 170 | 4.3 | 7.8 | 0.00 | 0.00 | 0.00 | 60 | 1021.3 |
| 20260906165616 | 79 | 160 | 0.9 | 5.2 | 0.00 | 0.00 | 0.00 | 60 | 1021.6 |
| 20260906165111 | 78 | 167 | 0.9 | 4.3 | 0.00 | 0.00 | 0.00 | 61 | 1021.5 |
| 20260906164610 | 77 | 101 | 3.5 | 7.8 | 0.00 | 0.00 | 0.00 | 61 | 1021.4 |
| 20260906164106 | 78 | 158 | 7.0 | 7.8 | 0.00 | 0.00 | 0.00 | 64 | 1021.4 |
| 20260906163601 | 77 | 128 | 6.1 | 7.8 | 0.00 | 0.00 | 0.00 | 67 | 1021.4 |
| 20260906163057 | 77 | 102 | 4.3 | 7.0 | 0.00 | 0.00 | 0.00 | 68 | 1021.4 |
| 20260906162554 | 77 | 171 | 2.6 | 6.1 | 0.00 | 0.00 | 0.00 | 69 | 1021.6 |
| 20260906162049 | 76 | 166 | 3.5 | 5.2 | 0.00 | 0.00 | 0.00 | 69 | 1021.6 |
| 20260906161544 | 76 | 151 | 7.0 | 8.7 | 0.00 | 0.00 | 0.00 | 70 | 1021.5 |
| 20260906161043 | 76 | 106 | 5.2 | 7.0 | 0.00 | 0.00 | 0.00 | 70 | 1021.6 |
| 20260906160542 | 76 | 186 | 3.5 | 4.3 | 0.00 | 0.00 | 0.00 | 73 | 1021.5 |
| 20260906160040 | 75 | 147 | 1.7 | 6.1 | 0.00 | 0.00 | 0.00 | 73 | 1021.9 |
| 20260906155538 | 75 | 156 | 1.7 | 5.2 | 0.00 | 0.00 | 0.00 | 74 | 1021.7 |
| 20260906155034 | 75 | 173 | 4.3 | 8.7 | 0.00 | 0.00 | 0.00 | 74 | 1022.1 |
| 20260906154530 | 74 | 152 | 5.2 | 7.0 | 0.00 | 0.00 | 0.00 | 77 | 1021.7 |
| 20260906154028 | 74 | 160 | 6.1 | 7.8 | 0.00 | 0.00 | 0.00 | 76 | 1021.7 |
| 20260906153527 | 73 | 144 | 7.0 | 9.6 | 0.00 | 0.00 | 0.00 | 77 | 1021.7 |
| 20260906153023 | 73 | 162 | 5.2 | 7.8 | 0.00 | 0.00 | 0.00 | 80 | 1021.9 |
| 20260906152517 | 73 | 182 | 6.1 | 9.6 | 0.00 | 0.00 | 0.00 | 78 | 1021.6 |
| 20260906152016 | 73 | 161 | 4.3 | 7.0 | 0.00 | 0.00 | 0.00 | 80 | 1021.5 |
| 20260906151512 | 73 | 140 | 6.1 | 8.7 | 0.00 | 0.00 | 0.00 | 80 | 1021.6 |
| 20260906151008 | 73 | 167 | 5.2 | 6.1 | 0.00 | 0.00 | 0.00 | 81 | 1021.6 |
| 20260906150502 | 72 | 158 | 1.7 | 7.8 | 0.00 | 0.00 | 0.00 | 83 | 1021.6 |
| 20260906150001 | 72 | 173 | 7.0 | 8.7 | 0.00 | 0.00 | 0.00 | 82 | 1021.7 |
| 20260906145456 | 72 | 162 | 8.7 | 9.6 | 0.00 | 0.00 | 0.00 | 82 | 1021.7 |
| 20260906144955 | 71 | 164 | 6.1 | 7.8 | 0.00 | 0.00 | 0.00 | 83 | 1021.5 |
| 20260906144450 | 71 | 178 | 6.1 | 9.6 | 0.00 | 0.00 | 0.00 | 83 | 1021.5 |
| 20260906143946 | 71 | 160 | 7.0 | 7.8 | 0.00 | 0.00 | 0.00 | 83 | 1021.6 |
| 20260906143441 | 71 | 120 | 4.3 | 7.0 | 0.00 | 0.00 | 0.00 | 84 | 1021.7 |
| 20260906142937 | 71 | 109 | 2.6 | 6.1 | 0.00 | 0.00 | 0.00 | 85 | 1021.5 |
| 20260906142431 | 70 | 151 | 1.7 | 4.3 | 0.00 | 0.00 | 0.00 | 85 | 1021.7 |
| 20260906141926 | 69 | 129 | 3.5 | 7.0 | 0.00 | 0.00 | 0.00 | 86 | 1021.5 |
| 20260906141426 | 69 | 167 | 4.3 | 7.0 | 0.00 | 0.00 | 0.00 | 88 | 1021.5 |
| 20260906140920 | 69 | 203 | 2.6 | 4.3 | 0.00 | 0.00 | 0.00 | 88 | 1021.3 |
| 20260906140414 | 69 | 211 | 0.9 | 4.3 | 0.00 | 0.00 | 0.00 | 91 | 1021.5 |
| 20260906135912 | 68 | 167 | 5.2 | 6.1 | 0.00 | 0.00 | 0.00 | 93 | 1021.4 |
| 20260906135406 | 68 | 181 | 3.5 | 6.1 | 0.00 | 0.00 | 0.00 | 93 | 1021.7 |
| 20260906134902 | 68 | 183 | 1.7 | 6.1 | 0.00 | 0.00 | 0.00 | 94 | 1021.6 |
| 20260906134357 | 68 | 151 | 4.3 | 5.2 | 0.00 | 0.00 | 0.00 | 94 | 1021.5 |
| 20260906133852 | 68 | 181 | 6.1 | 7.8 | 0.00 | 0.00 | 0.00 | 94 | 1021.6 |
| 20260906133348 | 67 | 170 | 3.5 | 7.8 | 0.00 | 0.00 | 0.00 | 95 | 1021.6 |
| 20260906132843 | 67 | 101 | 6.1 | 7.0 | 0.00 | 0.00 | 0.00 | 94 | 1021.5 |
| 20260906132338 | 68 | 151 | 7.0 | 7.8 | 0.00 | 0.00 | 0.00 | 94 | 1021.5 |
| 20260906131834 | 68 | 181 | 2.6 | 6.1 | 0.00 | 0.00 | 0.00 | 94 | 1021.3 |
| 20260906131329 | 68 | 158 | 2.6 | 5.2 | 0.00 | 0.00 | 0.00 | 95 | 1021.0 |
| 20260906130825 | 68 | 85 | 4.3 | 5.2 | 0.00 | 0.00 | 0.00 | 96 | 1020.9 |
| 20260906130324 | 67 | 165 | 2.6 | 4.3 | 0.00 | 0.00 | 0.00 | 97 | 1021.0 |
| 20260906125823 | 67 | 181 | 0.9 | 1.7 | 0.00 | 0.00 | 0.00 | 97 | 1020.7 |
| 20260906125321 | 66 | 177 | 0.9 | 1.7 | 0.00 | 0.00 | 0.00 | 98 | 1021.1 |
| 20260906124816 | 66 | 165 | 0.0 | 1.7 | 0.00 | 0.00 | 0.00 | 98 | 1020.9 |
| 20260906124312 | 66 | 77 | 0.9 | 4.3 | 0.00 | 0.00 | 0.00 | 98 | 1021.0 |
| 20260906123811 | 66 | 123 | 0.9 | 4.3 | 0.00 | 0.00 | 0.00 | 98 | 1021.2 |
| 20260906123306 | 65 | 142 | 0.9 | 4.3 | 0.00 | 0.00 | 0.00 | 98 | 1021.0 |
| 20260906122806 | 65 | 182 | 2.6 | 2.6 | 0.00 | 0.00 | 0.00 | 98 | 1020.9 |
| 20260906122301 | 65 | 121 | 0.9 | 1.7 | 0.00 | 0.00 | 0.00 | 98 | 1020.7 |
| 20260906121757 | 65 | 172 | 0.9 | 1.7 | 0.00 | 0.00 | 0.00 | 98 | 1020.7 |
| 20260906121253 | 65 | 161 | 1.7 | 2.6 | 0.00 | 0.00 | 0.00 | 98 | 1020.7 |
| 20260906120749 | 65 | 169 | 4.3 | 5.2 | 0.00 | 0.00 | 0.00 | 98 | 1020.7 |
| 20260906120246 | 65 | 146 | 1.7 | 1.7 | 0.00 | 0.00 | 0.00 | 98 | 1020.7 |
| 20260906115741 | 65 | 134 | 2.6 | 2.6 | 0.00 | 0.00 | 0.00 | 98 | 1020.6 |
| 20260906115236 | 65 | 140 | 2.6 | 2.6 | 0.00 | 0.00 | 0.00 | 98 | 1020.8 |
| 20260906114735 | 65 | 112 | 0.9 | 2.6 | 0.00 | 0.00 | 0.00 | 98 | 1020.4 |
| 20260906114231 | 65 | 148 | 0.9 | 1.7 | 0.00 | 0.00 | 0.00 | 98 | 1020.6 |
| 20260906113726 | 66 | 161 | 1.7 | 1.7 | 0.00 | 0.00 | 0.00 | 98 | 1020.5 |
| 20260906113225 | 66 | 90 | 1.7 | 4.3 | 0.00 | 0.00 | 0.00 | 98 | 1020.7 |
| 20260906112724 | 66 | 87 | 2.6 | 4.3 | 0.00 | 0.00 | 0.00 | 98 | 1020.6 |
| 20260906112222 | 66 | 49 | 1.7 | 1.7 | 0.00 | 0.00 | 0.00 | 98 | 1020.5 |
| 20260906111721 | 66 | 84 | 2.6 | 2.6 | 0.00 | 0.00 | 0.00 | 97 | 1020.4 |
| 20260906111215 | 66 | 83 | 1.7 | 2.6 | 0.00 | 0.00 | 0.00 | 97 | 1020.3 |
| 20260906110711 | 66 | 94 | 1.7 | 1.7 | 0.00 | 0.00 | 0.00 | 97 | 1020.6 |
| 20260906110206 | 66 | 142 | 0.0 | 2.6 | 0.00 | 0.00 | 0.00 | 97 | 1020.5 |
| 20260906105659 | 66 | 170 | 0.0 | 2.6 | 0.00 | 0.00 | 0.00 | 97 | 1020.6 |
| 20260906105155 | 66 | 81 | 1.7 | 1.7 | 0.00 | 0.00 | 0.00 | 97 | 1020.8 |
| 20260906104655 | 66 | 132 | 0.9 | 1.7 | 0.00 | 0.00 | 0.00 | 97 | 1020.8 |
| 20260906104148 | 66 | 89 | 1.7 | 2.6 | 0.00 | 0.00 | 0.00 | 98 | 1020.6 |
| 20260906103647 | 66 | 115 | 0.0 | 1.7 | 0.00 | 0.00 | 0.00 | 98 | 1020.4 |
| 20260906103142 | 66 | 114 | 1.7 | 1.7 | 0.00 | 0.00 | 0.00 | 98 | 1020.2 |
| 20260906102637 | 66 | 143 | 0.9 | 1.7 | 0.00 | 0.00 | 0.00 | 98 | 1020.1 |
| 20260906102131 | 66 | 119 | 0.9 | 1.7 | 0.00 | 0.00 | 0.00 | 98 | 1020.1 |
| 20260906101626 | 66 | 110 | 2.6 | 2.6 | 0.00 | 0.00 | 0.00 | 98 | 1019.8 |
| 20260906101126 | 66 | 123 | 2.6 | 2.6 | 0.00 | 0.00 | 0.00 | 97 | 1019.8 |
| 20260906100622 | 66 | 116 | 2.6 | 2.6 | 0.00 | 0.00 | 0.00 | 97 | 1019.7 |
| 20260906100121 | 66 | 129 | 0.9 | 1.7 | 0.00 | 0.00 | 0.00 | 97 | 1019.9 |
| 20260906095616 | 66 | 158 | 0.9 | 0.9 | 0.00 | 0.00 | 0.00 | 97 | 1019.8 |
| 20260906095112 | 66 | 173 | 0.0 | 0.0 | 0.00 | 0.00 | 0.00 | 96 | 1019.9 |
| 20260906094610 | 66 | 174 | 0.0 | 0.0 | 0.00 | 0.00 | 0.00 | 96 | 1019.8 |
| 20260906094107 | 67 | 179 | 0.9 | 1.7 | 0.00 | 0.00 | 0.00 | 96 | 1019.9 |
| 20260906093603 | 67 | 179 | 0.9 | 0.9 | 0.00 | 0.00 | 0.00 | 96 | 1019.8 |
| 20260906093057 | 67 | 176 | 0.9 | 0.9 | 0.00 | 0.00 | 0.00 | 96 | 1019.7 |
| 20260906092552 | 67 | 148 | 0.0 | 1.7 | 0.00 | 0.00 | 0.00 | 96 | 1019.8 |
| 20260906092047 | 67 | 125 | 0.0 | 0.0 | 0.00 | 0.00 | 0.00 | 96 | 1019.8 |
| 20260906091543 | 67 | 173 | 0.0 | 0.0 | 0.00 | 0.00 | 0.00 | 96 | 1019.9 |
| 20260906091040 | 67 | 175 | 0.0 | 0.0 | 0.00 | 0.00 | 0.00 | 96 | 1019.8 |
| 20260906090539 | 67 | 161 | 0.0 | 0.9 | 0.00 | 0.00 | 0.00 | 96 | 1019.5 |
| 20260906090040 | 67 | 156 | 1.7 | 1.7 | 0.00 | 0.00 | 0.00 | 96 | 1019.3 |
| 20260906085539 | 67 | 142 | 1.7 | 1.7 | 0.00 | 0.00 | 0.00 | 96 | 1019.5 |
| 20260906085039 | 67 | 125 | 1.7 | 2.6 | 0.00 | 0.00 | 0.00 | 95 | 1019.4 |
| 20260906084533 | 67 | 176 | 2.6 | 7.0 | 0.00 | 0.00 | 0.00 | 95 | 1019.5 |
| 20260906084032 | 67 | 154 | 3.5 | 5.2 | 0.00 | 0.00 | 0.00 | 95 | 1019.4 |
| 20260906083528 | 67 | 135 | 2.6 | 4.3 | 0.00 | 0.00 | 0.00 | 95 | 1019.4 |
| 20260906083027 | 68 | 158 | 3.5 | 4.3 | 0.00 | 0.00 | 0.00 | 95 | 1019.3 |
| 20260906082522 | 68 | 177 | 1.7 | 2.6 | 0.00 | 0.00 | 0.00 | 95 | 1019.6 |
| 20260906082018 | 68 | 169 | 1.7 | 1.7 | 0.00 | 0.00 | 0.00 | 95 | 1019.7 |
| 20260906081514 | 68 | 165 | 0.9 | 2.6 | 0.00 | 0.00 | 0.00 | 95 | 1019.7 |
| 20260906081009 | 68 | 147 | 2.6 | 2.6 | 0.00 | 0.00 | 0.00 | 95 | 1019.3 |
| 20260906080506 | 68 | 141 | 1.7 | 2.6 | 0.00 | 0.00 | 0.00 | 95 | 1019.6 |
| 20260906080001 | 68 | 113 | 2.6 | 2.6 | 0.00 | 0.00 | 0.00 | 95 | 1019.6 |
| 20260906075455 | 68 | 140 | 1.7 | 4.3 | 0.00 | 0.00 | 0.00 | 95 | 1019.7 |
| 20260906074950 | 68 | 140 | 1.7 | 2.6 | 0.00 | 0.00 | 0.00 | 95 | 1019.6 |
| 20260906074445 | 68 | 65 | 3.5 | 5.2 | 0.00 | 0.00 | 0.00 | 95 | 1019.8 |
| 20260906073943 | 68 | 95 | 2.6 | 5.2 | 0.00 | 0.00 | 0.00 | 95 | 1019.5 |
| 20260906073438 | 68 | 82 | 3.5 | 5.2 | 0.00 | 0.00 | 0.00 | 94 | 1019.8 |
| 20260906072935 | 68 | 103 | 2.6 | 4.3 | 0.00 | 0.00 | 0.00 | 94 | 1019.7 |
| 20260906072430 | 68 | 124 | 2.6 | 4.3 | 0.00 | 0.00 | 0.00 | 94 | 1019.9 |
| 20260906071926 | 68 | 121 | 1.7 | 2.6 | 0.00 | 0.00 | 0.00 | 94 | 1019.8 |
| 20260906071421 | 68 | 161 | 2.6 | 4.3 | 0.00 | 0.00 | 0.00 | 94 | 1019.8 |
| 20260906070917 | 69 | 174 | 2.6 | 4.3 | 0.00 | 0.00 | 0.00 | 93 | 1019.7 |
| 20260906070413 | 69 | 174 | 2.6 | 2.6 | 0.00 | 0.00 | 0.00 | 93 | 1020.1 |
| 20260906065909 | 69 | 170 | 1.7 | 1.7 | 0.00 | 0.00 | 0.00 | 93 | 1020.0 |
| 20260906065403 | 69 | 177 | 1.7 | 1.7 | 0.00 | 0.00 | 0.00 | 93 | 1020.1 |
| 20260906064859 | 69 | 133 | 2.6 | 2.6 | 0.00 | 0.00 | 0.00 | 93 | 1020.0 |
| 20260906064355 | 69 | 119 | 0.9 | 2.6 | 0.00 | 0.00 | 0.00 | 93 | 1020.2 |
| 20260906063854 | 69 | 73 | 1.7 | 1.7 | 0.00 | 0.00 | 0.00 | 93 | 1020.0 |
| 20260906063350 | 69 | 105 | 0.9 | 1.7 | 0.00 | 0.00 | 0.00 | 93 | 1020.1 |
| 20260906062845 | 69 | 111 | 0.9 | 1.7 | 0.00 | 0.00 | 0.00 | 93 | 1020.0 |
| 20260906062344 | 69 | 128 | 0.9 | 1.7 | 0.00 | 0.00 | 0.00 | 93 | 1019.9 |
| 20260906061840 | 69 | 126 | 1.7 | 2.6 | 0.00 | 0.00 | 0.00 | 93 | 1020.1 |
| 20260906061336 | 69 | 133 | 1.7 | 2.6 | 0.00 | 0.00 | 0.00 | 93 | 1020.2 |
| 20260906060830 | 69 | 165 | 0.9 | 1.7 | 0.00 | 0.00 | 0.00 | 92 | 1020.0 |
| 20260906060329 | 69 | 151 | 0.9 | 1.7 | 0.00 | 0.00 | 0.00 | 92 | 1020.3 |
| 20260906055824 | 69 | 170 | 0.0 | 0.9 | 0.00 | 0.00 | 0.00 | 92 | 1020.4 |
| 20260906055320 | 69 | 134 | 0.9 | 1.7 | 0.00 | 0.00 | 0.00 | 92 | 1019.9 |
| 20260906054815 | 70 | 176 | 0.9 | 0.9 | 0.00 | 0.00 | 0.00 | 92 | 1020.0 |
| 20260906054310 | 70 | 120 | 0.9 | 0.9 | 0.00 | 0.00 | 0.00 | 91 | 1019.9 |
| 20260906053806 | 70 | 146 | 0.9 | 1.7 | 0.00 | 0.00 | 0.00 | 91 | 1020.2 |
| 20260906053301 | 70 | 171 | 0.9 | 1.7 | 0.00 | 0.00 | 0.00 | 90 | 1020.1 |
| 20260906052756 | 70 | 181 | 1.7 | 1.7 | 0.00 | 0.00 | 0.00 | 90 | 1020.1 |
| 20260906052253 | 70 | 187 | 0.9 | 2.6 | 0.00 | 0.00 | 0.00 | 90 | 1020.1 |
| 20260906051750 | 70 | 181 | 1.7 | 1.7 | 0.00 | 0.00 | 0.00 | 90 | 1020.0 |
| 20260906051249 | 70 | 166 | 0.9 | 1.7 | 0.00 | 0.00 | 0.00 | 90 | 1020.1 |
| 20260906050744 | 70 | 151 | 0.9 | 1.7 | 0.00 | 0.00 | 0.00 | 90 | 1019.9 |
| 20260906050239 | 71 | 124 | 1.7 | 2.6 | 0.00 | 0.00 | 0.00 | 90 | 1019.9 |
| 20260906045738 | 71 | 171 | 3.5 | 5.2 | 0.00 | 0.00 | 0.00 | 89 | 1019.8 |
| 20260906045233 | 71 | 143 | 2.6 | 5.2 | 0.00 | 0.00 | 0.00 | 89 | 1019.8 |
| 20260906044729 | 71 | 145 | 3.5 | 7.8 | 0.00 | 0.00 | 0.00 | 90 | 1019.9 |
| 20260906044224 | 70 | 184 | 0.9 | 0.9 | 0.00 | 0.00 | 0.00 | 90 | 1020.0 |
| 20260906043720 | 70 | 189 | 1.7 | 1.7 | 0.00 | 0.00 | 0.00 | 90 | 1019.8 |
| 20260906043216 | 70 | 170 | 1.7 | 1.7 | 0.00 | 0.00 | 0.00 | 90 | 1019.4 |
| 20260906042715 | 70 | 166 | 2.6 | 2.6 | 0.00 | 0.00 | 0.00 | 90 | 1019.5 |
| 20260906042214 | 70 | 171 | 1.7 | 4.3 | 0.00 | 0.00 | 0.00 | 90 | 1019.7 |
| 20260906041710 | 70 | 140 | 1.7 | 1.7 | 0.00 | 0.00 | 0.00 | 90 | 1019.8 |
| 20260906041205 | 70 | 181 | 3.5 | 5.2 | 0.00 | 0.00 | 0.00 | 90 | 1019.8 |
| 20260906040701 | 70 | 164 | 3.5 | 5.2 | 0.00 | 0.00 | 0.00 | 90 | 1019.7 |
| 20260906040156 | 70 | 174 | 2.6 | 7.0 | 0.00 | 0.00 | 0.00 | 90 | 1019.7 |
| 20260906035651 | 70 | 157 | 2.6 | 5.2 | 0.00 | 0.00 | 0.00 | 91 | 1019.5 |
| 20260906035147 | 70 | 167 | 2.6 | 4.3 | 0.00 | 0.00 | 0.00 | 91 | 1019.4 |
| 20260906034642 | 70 | 170 | 1.7 | 4.3 | 0.00 | 0.00 | 0.00 | 90 | 1018.9 |
| 20260906034142 | 70 | 176 | 3.5 | 4.3 | 0.00 | 0.00 | 0.00 | 90 | 1019.2 |
| 20260906033637 | 70 | 167 | 2.6 | 4.3 | 0.00 | 0.00 | 0.00 | 91 | 1019.3 |
| 20260906033132 | 71 | 172 | 1.7 | 1.7 | 0.00 | 0.00 | 0.00 | 90 | 1019.5 |
| 20260906032629 | 71 | 174 | 1.7 | 1.7 | 0.00 | 0.00 | 0.00 | 90 | 1019.4 |
| 20260906032128 | 71 | 185 | 0.0 | 0.9 | 0.00 | 0.00 | 0.00 | 90 | 1019.6 |
| 20260906031624 | 71 | 185 | 0.0 | 0.0 | 0.00 | 0.00 | 0.00 | 90 | 1019.6 |
| 20260906031119 | 71 | 185 | 0.0 | 0.0 | 0.00 | 0.00 | 0.00 | 89 | 1019.5 |
| 20260906030618 | 72 | 185 | 0.0 | 0.9 | 0.00 | 0.00 | 0.00 | 89 | 1019.3 |
| 20260906030114 | 72 | 184 | 0.9 | 0.9 | 0.00 | 0.00 | 0.00 | 88 | 1019.4 |
| 20260906025613 | 72 | 177 | 0.9 | 0.9 | 0.00 | 0.00 | 0.00 | 88 | 1019.2 |
| 20260906025112 | 72 | 167 | 0.0 | 0.0 | 0.00 | 0.00 | 0.00 | 88 | 1019.0 |
| 20260906024607 | 72 | 167 | 0.0 | 0.0 | 0.00 | 0.00 | 0.00 | 88 | 1019.0 |
| 20260906024101 | 72 | 166 | 0.0 | 1.7 | 0.00 | 0.00 | 0.00 | 88 | 1018.8 |
| 20260906023557 | 72 | 174 | 0.9 | 1.7 | 0.00 | 0.00 | 0.00 | 88 | 1018.9 |
| 20260906023051 | 72 | 172 | 0.9 | 1.7 | 0.00 | 0.00 | 0.00 | 88 | 1018.8 |
| 20260906022547 | 72 | 155 | 0.9 | 1.7 | 0.00 | 0.00 | 0.00 | 88 | 1018.6 |
| 20260906022043 | 73 | 147 | 0.9 | 1.7 | 0.00 | 0.00 | 0.00 | 87 | 1018.6 |
| 20260906021538 | 73 | 156 | 2.6 | 2.6 | 0.00 | 0.00 | 0.00 | 86 | 1018.6 |
| 20260906021037 | 73 | 173 | 0.9 | 5.2 | 0.00 | 0.00 | 0.00 | 86 | 1018.6 |
| 20260906020536 | 73 | 172 | 1.7 | 2.6 | 0.00 | 0.00 | 0.00 | 86 | 1018.3 |
| 20260906020031 | 73 | 175 | 2.6 | 4.3 | 0.00 | 0.00 | 0.00 | 86 | 1018.3 |
| 20260906015530 | 73 | 174 | 1.7 | 2.6 | 0.00 | 0.00 | 0.00 | 85 | 1018.4 |
| 20260906015030 | 74 | 201 | 0.0 | 0.9 | 0.00 | 0.00 | 0.00 | 85 | 1018.2 |
| 20260906014525 | 74 | 213 | 0.9 | 2.6 | 0.00 | 0.00 | 0.00 | 84 | 1017.9 |
| 20260906014021 | 75 | 193 | 0.9 | 1.7 | 0.00 | 0.00 | 0.00 | 83 | 1017.5 |
| 20260906013516 | 75 | 174 | 0.9 | 0.9 | 0.00 | 0.00 | 0.00 | 83 | 1017.6 |
| 20260906013011 | 75 | 173 | 1.7 | 2.6 | 0.00 | 0.00 | 0.00 | 82 | 1017.3 |
| 20260906012506 | 75 | 163 | 1.7 | 2.6 | 0.00 | 0.00 | 0.00 | 82 | 1017.3 |
| 20260906012005 | 75 | 175 | 2.6 | 4.3 | 0.00 | 0.00 | 0.00 | 81 | 1017.3 |
| 20260906011501 | 76 | 131 | 3.5 | 5.2 | 0.00 | 0.00 | 0.00 | 81 | 1017.3 |
| 20260906010950 | 76 | 137 | 2.6 | 4.3 | 0.00 | 0.00 | 0.00 | 80 | 1017.4 |
| 20260906010446 | 76 | 100 | 1.7 | 4.3 | 0.00 | 0.00 | 0.00 | 80 | 1017.3 |
| 20260906005943 | 76 | 129 | 1.7 | 4.3 | 0.00 | 0.00 | 0.00 | 79 | 1017.2 |
| 20260906005442 | 77 | 98 | 2.6 | 5.2 | 0.00 | 0.00 | 0.00 | 79 | 1017.2 |
| 20260906004940 | 77 | 149 | 2.6 | 2.6 | 0.00 | 0.00 | 0.00 | 78 | 1017.2 |
| 20260906004434 | 77 | 153 | 3.5 | 5.2 | 0.00 | 0.00 | 0.00 | 78 | 1017.4 |
| 20260906003930 | 77 | 108 | 4.3 | 6.1 | 0.00 | 0.00 | 0.00 | 77 | 1017.3 |
| 20260906003430 | 78 | 131 | 2.6 | 4.3 | 0.00 | 0.00 | 0.00 | 77 | 1017.2 |
| 20260906002926 | 78 | 103 | 3.5 | 4.3 | 0.00 | 0.00 | 0.00 | 76 | 1017.2 |
| 20260906002425 | 78 | 56 | 4.3 | 6.1 | 0.00 | 0.00 | 0.00 | 76 | 1017.2 |
| 20260906001920 | 78 | 69 | 2.6 | 5.2 | 0.00 | 0.00 | 0.00 | 76 | 1017.1 |
| 20260906001416 | 78 | 111 | 4.3 | 7.0 | 0.00 | 0.00 | 0.00 | 75 | 1017.3 |
| 20260906000911 | 79 | 67 | 3.5 | 7.0 | 0.00 | 0.00 | 0.00 | 74 | 1017.2 |
| 20260906000406 | 79 | 171 | 1.7 | 5.2 | 0.00 | 0.00 | 0.00 | 74 | 1017.2 |
| 20260905235901 | 79 | 86 | 3.5 | 5.2 | 0.00 | 0.00 | 0.00 | 74 | 1017.2 |
| 20260905235355 | 79 | 122 | 4.3 | 7.8 | 0.00 | 0.00 | 0.00 | 74 | 1017.2 |
| 20260905234850 | 80 | 98 | 6.1 | 7.8 | 0.00 | 0.00 | 0.00 | 73 | 1017.2 |
| 20260905234345 | 80 | 136 | 3.5 | 6.1 | 0.00 | 0.00 | 0.00 | 73 | 1017.2 |
| 20260905233840 | 80 | 131 | 2.6 | 5.2 | 0.00 | 0.00 | 0.00 | 73 | 1017.0 |
| 20260905233335 | 80 | 185 | 3.5 | 6.1 | 0.00 | 0.00 | 0.00 | 73 | 1017.1 |
| 20260905232835 | 81 | 115 | 4.3 | 5.2 | 0.00 | 0.00 | 0.00 | 72 | 1017.3 |
| 20260905232331 | 81 | 120 | 1.7 | 5.2 | 0.00 | 0.00 | 0.00 | 71 | 1017.2 |
| 20260905231827 | 81 | 64 | 4.3 | 7.8 | 0.00 | 0.00 | 0.00 | 70 | 1017.1 |
| 20260905231321 | 81 | 83 | 4.3 | 8.7 | 0.00 | 0.00 | 0.00 | 70 | 1017.0 |
| 20260905230818 | 81 | 32 | 7.0 | 8.7 | 0.00 | 0.00 | 0.00 | 70 | 1017.2 |
| 20260905230315 | 82 | 98 | 4.3 | 6.1 | 0.00 | 0.00 | 0.00 | 69 | 1016.9 |
| 20260905225815 | 82 | 105 | 4.3 | 6.1 | 0.00 | 0.00 | 0.00 | 69 | 1017.2 |
| 20260905225310 | 81 | 82 | 2.6 | 7.8 | 0.00 | 0.00 | 0.00 | 69 | 1017.6 |
| 20260905224810 | 82 | 54 | 3.5 | 7.0 | 0.00 | 0.00 | 0.00 | 69 | 1017.1 |
| 20260905224306 | 82 | 73 | 6.1 | 7.0 | 0.00 | 0.00 | 0.00 | 68 | 1017.3 |
| 20260905223801 | 82 | 111 | 3.5 | 7.0 | 0.00 | 0.00 | 0.00 | 68 | 1017.3 |
| 20260905223258 | 82 | 57 | 4.3 | 6.1 | 0.00 | 0.00 | 0.00 | 66 | 1017.3 |
| 20260905222753 | 82 | 141 | 4.3 | 6.1 | 0.00 | 0.00 | 0.00 | 68 | 1017.3 |
| 20260905222252 | 82 | 51 | 2.6 | 4.3 | 0.00 | 0.00 | 0.00 | 68 | 1017.4 |
| 20260905221748 | 82 | 21 | 0.9 | 1.7 | 0.00 | 0.00 | 0.00 | 68 | 1017.6 |
| 20260905221245 | 82 | 105 | 2.6 | 5.2 | 0.00 | 0.00 | 0.00 | 69 | 1017.2 |
| 20260905220740 | 82 | 109 | 1.7 | 2.6 | 0.00 | 0.00 | 0.00 | 68 | 1017.7 |
| 20260905220236 | 82 | 155 | 0.0 | 0.9 | 0.00 | 0.00 | 0.00 | 70 | 1017.6 |
| 20260905215736 | 81 | 281 | 3.5 | 4.3 | 0.00 | 0.00 | 0.00 | 73 | 1017.6 |
| 20260905215231 | 81 | 260 | 2.6 | 4.3 | 0.00 | 0.00 | 0.00 | 74 | 1017.5 |
| 20260905214727 | 81 | 190 | 0.0 | 0.9 | 0.00 | 0.00 | 0.00 | 74 | 1017.7 |
| 20260905214223 | 81 | 154 | 0.0 | 1.7 | 0.00 | 0.00 | 0.00 | 73 | 1017.9 |
| 20260905213718 | 82 | 170 | 1.7 | 1.7 | 0.00 | 0.00 | 0.00 | 72 | 1017.7 |
| 20260905213214 | 83 | 218 | 0.9 | 1.7 | 0.00 | 0.00 | 0.00 | 72 | 1018.1 |
| 20260905212709 | 82 | 210 | 2.6 | 2.6 | 0.00 | 0.00 | 0.00 | 70 | 1018.1 |
| 20260905212208 | 82 | 305 | 0.0 | 4.3 | 0.00 | 0.00 | 0.00 | 70 | 1018.0 |
| 20260905211703 | 82 | 258 | 0.0 | 0.9 | 0.00 | 0.00 | 0.00 | 69 | 1017.9 |
| 20260905211158 | 82 | 16 | 1.7 | 2.6 | 0.00 | 0.00 | 0.00 | 69 | 1018.1 |
| 20260905210655 | 82 | 336 | 1.7 | 5.2 | 0.00 | 0.00 | 0.00 | 72 | 1018.1 |
| 20260905210154 | 82 | 343 | 0.0 | 0.0 | 0.00 | 0.00 | 0.00 | 71 | 1017.9 |
| 20260905205653 | 82 | 162 | 0.9 | 2.6 | 0.00 | 0.00 | 0.00 | 71 | 1018.1 |
| 20260905205153 | 81 | 248 | 2.6 | 4.3 | 0.00 | 0.00 | 0.00 | 72 | 1018.2 |
| 20260905204653 | 81 | 250 | 2.6 | 2.6 | 0.00 | 0.00 | 0.00 | 73 | 1018.2 |
| 20260905204148 | 80 | 299 | 3.5 | 4.3 | 0.00 | 0.00 | 0.00 | 74 | 1018.2 |
| 20260905203643 | 80 | 29 | 0.9 | 2.6 | 0.00 | 0.00 | 0.00 | 75 | 1018.1 |
| 20260905203138 | 81 | 270 | 2.6 | 2.6 | 0.00 | 0.00 | 0.00 | 73 | 1018.4 |
| 20260905202634 | 80 | 216 | 0.0 | 0.9 | 0.00 | 0.00 | 0.00 | 74 | 1018.2 |
| 20260905202129 | 81 | 207 | 0.9 | 4.3 | 0.00 | 0.00 | 0.00 | 74 | 1018.5 |
| 20260905201625 | 80 | 231 | 2.6 | 2.6 | 0.00 | 0.00 | 0.00 | 75 | 1018.5 |
| 20260905201124 | 78 | 283 | 3.5 | 6.1 | 0.00 | 0.00 | 0.00 | 78 | 1018.4 |
| 20260905200620 | 79 | 277 | 6.1 | 6.1 | 0.00 | 0.00 | 0.00 | 77 | 1018.3 |
| 20260905200115 | 80 | 247 | 2.6 | 6.1 | 0.00 | 0.00 | 0.00 | 76 | 1018.8 |
| 20260905195613 | 80 | 226 | 0.0 | 1.7 | 0.00 | 0.00 | 0.00 | 73 | 1018.6 |
| 20260905195109 | 80 | 223 | 2.6 | 4.3 | 0.00 | 0.00 | 0.00 | 73 | 1018.5 |
| 20260905194609 | 80 | 243 | 4.3 | 5.2 | 0.00 | 0.00 | 0.00 | 74 | 1018.5 |
| 20260905194108 | 81 | 275 | 2.6 | 4.3 | 0.00 | 0.00 | 0.00 | 72 | 1018.6 |
| 20260905193603 | 81 | 300 | 3.5 | 4.3 | 0.00 | 0.00 | 0.00 | 73 | 1018.3 |
| 20260905193058 | 80 | 203 | 1.7 | 2.6 | 0.00 | 0.00 | 0.00 | 74 | 1018.5 |
| 20260905192553 | 80 | 263 | 2.6 | 5.2 | 0.00 | 0.00 | 0.00 | 74 | 1018.8 |
| 20260905192050 | 80 | 227 | 0.9 | 1.7 | 0.00 | 0.00 | 0.00 | 75 | 1018.5 |
| 20260905191548 | 79 | 243 | 1.7 | 1.7 | 0.00 | 0.00 | 0.00 | 76 | 1018.3 |
| 20260905191048 | 78 | 209 | 0.9 | 0.9 | 0.00 | 0.00 | 0.00 | 77 | 1018.7 |
| 20260905190546 | 79 | 161 | 0.9 | 2.6 | 0.00 | 0.00 | 0.00 | 77 | 1018.6 |
| 20260905190040 | 79 | 92 | 0.0 | 1.7 | 0.00 | 0.00 | 0.00 | 77 | 1018.5 |
| 20260905185539 | 78 | 135 | 0.0 | 1.7 | 0.00 | 0.00 | 0.00 | 77 | 1018.5 |
| 20260905185038 | 78 | 166 | 0.0 | 0.9 | 0.00 | 0.00 | 0.00 | 78 | 1018.6 |
| 20260905184533 | 78 | 118 | 1.7 | 2.6 | 0.00 | 0.00 | 0.00 | 78 | 1018.7 |
| 20260905184032 | 79 | 38 | 2.6 | 4.3 | 0.00 | 0.00 | 0.00 | 77 | 1018.7 |
| 20260905183532 | 80 | 161 | 0.0 | 1.7 | 0.00 | 0.00 | 0.00 | 73 | 1018.6 |
| 20260905183027 | 78 | 20 | 0.9 | 1.7 | 0.00 | 0.00 | 0.00 | 77 | 1018.8 |
| 20260905182526 | 78 | 359 | 2.6 | 4.3 | 0.00 | 0.00 | 0.00 | 77 | 1018.4 |
| 20260905182021 | 78 | 172 | 0.0 | 2.6 | 0.00 | 0.00 | 0.00 | 78 | 1018.8 |
| 20260905181516 | 78 | 285 | 0.0 | 1.7 | 0.00 | 0.00 | 0.00 | 78 | 1018.9 |
| 20260905181015 | 78 | 142 | 0.0 | 1.7 | 0.00 | 0.00 | 0.00 | 79 | 1019.0 |
| 20260905180510 | 78 | 343 | 2.6 | 2.6 | 0.00 | 0.00 | 0.00 | 79 | 1019.0 |